createdAt,value
2018-10-16T00:02:27.764Z,15.47
2018-10-16T00:04:55.817Z,16.90
2018-10-16T00:07:23.908Z,16.27
2018-10-16T00:09:51.973Z,14.73
2018-10-16T00:12:20.041Z,15.87
2018-10-16T00:14:48.141Z,14.87
2018-10-16T00:17:16.212Z,15.33
2018-10-16T00:19:44.257Z,14.27
2018-10-16T00:22:12.445Z,13.80
2018-10-16T00:24:40.522Z,15.23
2018-10-16T00:27:08.578Z,13.87
2018-10-16T00:29:36.653Z,15.03
2018-10-16T00:32:04.713Z,16.10
2018-10-16T00:34:32.765Z,13.67
2018-10-16T00:37:00.805Z,16.53
2018-10-16T00:39:28.877Z,14.73
2018-10-16T00:41:57.713Z,15.43
2018-10-16T00:44:25.778Z,15.47
2018-10-16T00:46:53.833Z,15.03
2018-10-16T00:49:21.886Z,14.93
2018-10-16T00:51:49.938Z,14.50
2018-10-16T00:54:18.062Z,15.17
2018-10-16T00:56:46.138Z,15.33
2018-10-16T00:59:14.232Z,15.23
2018-10-16T01:01:42.294Z,15.57
2018-10-16T01:04:10.406Z,14.90
2018-10-16T01:06:38.531Z,15.43
2018-10-16T01:09:08.914Z,15.23
2018-10-16T01:11:37.171Z,14.50
2018-10-16T01:14:05.259Z,16.87
2018-10-16T01:16:33.355Z,14.43
2018-10-16T01:19:01.444Z,14.20
2018-10-16T01:21:29.557Z,13.87
2018-10-16T01:23:57.710Z,14.23
2018-10-16T01:26:25.803Z,14.17
2018-10-16T01:28:53.872Z,14.30
2018-10-16T01:31:21.963Z,13.83
2018-10-16T01:33:50.098Z,14.37
2018-10-16T01:36:18.163Z,14.10
2018-10-16T01:38:46.235Z,13.00
2018-10-16T01:41:14.318Z,12.27
2018-10-16T01:43:42.350Z,12.90
2018-10-16T01:46:10.405Z,12.67
2018-10-16T01:48:38.683Z,12.63
2018-10-16T01:51:07.099Z,12.50
2018-10-16T01:53:35.183Z,13.17
2018-10-16T01:56:03.263Z,15.70
2018-10-16T01:58:31.324Z,13.37
2018-10-16T02:00:59.382Z,13.60
2018-10-16T02:03:27.442Z,13.37
2018-10-16T02:05:55.519Z,13.97
2018-10-16T02:08:23.575Z,13.87
2018-10-16T02:10:51.630Z,13.10
2018-10-16T02:13:19.715Z,14.33
2018-10-16T02:15:47.767Z,13.93
2018-10-16T02:18:15.811Z,16.57
2018-10-16T02:20:43.878Z,14.43
2018-10-16T02:23:12.664Z,16.73
2018-10-16T02:25:40.715Z,14.60
2018-10-16T02:28:08.792Z,14.77
2018-10-16T02:30:36.868Z,13.77
2018-10-16T02:33:05.070Z,15.90
2018-10-16T02:35:33.152Z,13.27
2018-10-16T02:38:01.195Z,14.00
2018-10-16T02:40:29.247Z,17.57
2018-10-16T02:42:57.335Z,16.63
2018-10-16T02:45:25.395Z,13.73
2018-10-16T02:47:53.435Z,13.93
2018-10-16T02:50:21.476Z,14.47
2018-10-16T02:52:56.232Z,13.37
2018-10-16T02:55:24.268Z,14.47
2018-10-16T02:57:52.328Z,13.30
2018-10-16T03:00:20.397Z,13.53
2018-10-16T03:02:48.435Z,12.83
2018-10-16T03:05:16.468Z,13.63
2018-10-16T03:07:44.539Z,15.63
2018-10-16T03:10:13.336Z,14.27
2018-10-16T03:12:41.388Z,14.23
2018-10-16T03:15:11.084Z,15.23
2018-10-16T03:17:39.252Z,14.33
2018-10-16T03:20:07.569Z,14.23
2018-10-16T03:22:35.611Z,15.73
2018-10-16T03:25:03.696Z,15.00
2018-10-16T03:27:31.788Z,14.30
2018-10-16T03:29:59.812Z,14.53
2018-10-16T03:32:27.852Z,14.77
2018-10-16T03:34:55.893Z,16.97
2018-10-16T03:37:23.912Z,14.37
2018-10-16T03:39:51.976Z,14.83
2018-10-16T03:42:20.032Z,15.07
2018-10-16T03:44:48.048Z,14.70
2018-10-16T03:47:16.084Z,15.33
2018-10-16T03:49:44.112Z,15.43
2018-10-16T03:52:12.153Z,15.27
2018-10-16T03:54:40.204Z,15.37
2018-10-16T03:57:08.333Z,21.00
2018-10-16T03:59:36.325Z,15.60
2018-10-16T04:02:04.548Z,15.07
2018-10-16T04:04:32.620Z,15.93
2018-10-16T04:07:00.708Z,16.50
2018-10-16T04:09:28.765Z,15.70
2018-10-16T04:11:56.802Z,17.17
2018-10-16T04:14:24.850Z,15.27
2018-10-16T04:16:52.900Z,15.97
2018-10-16T04:19:20.955Z,16.07
2018-10-16T04:21:49.080Z,16.90
2018-10-16T04:24:17.112Z,16.97
2018-10-16T04:26:45.169Z,17.77
2018-10-16T04:29:13.938Z,15.87
2018-10-16T04:31:41.916Z,14.80
2018-10-16T04:34:10.444Z,15.70
2018-10-16T04:36:38.629Z,15.00
2018-10-16T04:39:07.757Z,15.57
2018-10-16T04:41:35.795Z,19.83
2018-10-16T04:44:03.915Z,18.37
2018-10-16T04:46:31.998Z,17.23
2018-10-16T04:49:00.034Z,15.70
2018-10-16T04:51:30.974Z,15.70
2018-10-16T04:53:59.134Z,18.30
2018-10-16T04:56:27.161Z,15.30
2018-10-16T04:58:55.457Z,19.03
2018-10-16T05:01:23.498Z,17.13
2018-10-16T05:03:51.581Z,16.73
2018-10-16T05:06:19.598Z,15.63
2018-10-16T05:08:47.674Z,16.30
2018-10-16T05:11:15.727Z,17.47
2018-10-16T05:13:43.907Z,22.10
2018-10-16T05:16:11.970Z,20.93
2018-10-16T05:18:40.015Z,18.80
2018-10-16T05:21:08.074Z,16.00
2018-10-16T05:23:36.102Z,19.50
2018-10-16T05:26:04.205Z,18.20
2018-10-16T05:28:32.242Z,21.00
2018-10-16T05:31:00.410Z,20.43
2018-10-16T05:33:28.431Z,21.87
2018-10-16T05:35:56.508Z,20.80
2018-10-16T05:38:24.571Z,21.43
2018-10-16T05:40:52.631Z,19.17
2018-10-16T05:43:20.682Z,20.53
2018-10-16T05:45:48.811Z,18.80
2018-10-16T05:48:16.863Z,15.57
2018-10-16T05:50:44.943Z,19.53
2018-10-16T05:53:13.000Z,22.40
2018-10-16T05:55:41.388Z,20.73
2018-10-16T05:58:09.910Z,21.10
2018-10-16T06:00:40.568Z,21.60
2018-10-16T06:03:09.143Z,22.80
2018-10-16T06:05:37.550Z,18.03
2018-10-16T06:08:06.057Z,17.97
2018-10-16T06:10:34.547Z,17.07
2018-10-16T06:13:02.970Z,19.23
2018-10-16T06:15:31.433Z,21.63
2018-10-16T06:18:01.550Z,15.87
2018-10-16T06:20:29.941Z,18.37
2018-10-16T06:22:58.321Z,15.63
2018-10-16T06:25:26.680Z,19.32
2018-10-16T06:27:55.053Z,17.27
2018-10-16T06:30:23.358Z,21.10
2018-10-16T06:32:51.712Z,19.97
2018-10-16T06:35:20.064Z,15.75
2018-10-16T06:37:48.412Z,17.73
2018-10-16T06:40:16.857Z,18.97
2018-10-16T06:42:45.240Z,17.27
2018-10-16T06:45:13.692Z,18.23
2018-10-16T06:47:42.132Z,16.90
2018-10-16T06:50:10.779Z,19.10
2018-10-16T06:52:39.233Z,20.97
2018-10-16T06:55:07.619Z,18.97
2018-10-16T06:57:35.944Z,16.57
2018-10-16T07:00:05.002Z,16.00
2018-10-16T07:02:33.337Z,16.02
2018-10-16T07:05:02.211Z,20.97
2018-10-16T07:07:30.512Z,21.40
2018-10-16T07:09:58.841Z,16.43
2018-10-16T07:12:27.365Z,18.30
2018-10-16T07:14:55.679Z,24.00
2018-10-16T07:17:24.161Z,20.30
2018-10-16T07:19:52.548Z,22.15
2018-10-16T07:22:20.913Z,18.43
2018-10-16T07:24:56.086Z,23.17
2018-10-16T07:27:24.469Z,22.30
2018-10-16T07:29:52.984Z,29.37
2018-10-16T07:32:21.337Z,20.00
2018-10-16T07:34:49.713Z,24.90
2018-10-16T07:37:18.001Z,17.60
2018-10-16T07:39:46.361Z,17.43
2018-10-16T07:42:15.797Z,16.57
2018-10-16T07:44:47.582Z,16.03
2018-10-16T07:47:16.125Z,17.33
2018-10-16T07:49:44.402Z,17.70
2018-10-16T07:52:18.869Z,16.77
2018-10-16T07:54:47.321Z,16.97
2018-10-16T07:59:50.685Z,16.53
2018-10-16T08:02:19.742Z,51.07
2018-10-16T08:04:47.749Z,19.93
2018-10-16T08:07:16.150Z,17.87
2018-10-16T08:09:44.150Z,18.80
2018-10-16T08:15:04.990Z,17.53
2018-10-16T08:17:33.498Z,18.43
2018-10-16T08:20:01.926Z,18.47
2018-10-16T08:22:29.994Z,20.50
2018-10-16T08:24:58.041Z,19.07
2018-10-16T08:27:26.082Z,29.17
2018-10-16T08:30:07.870Z,21.47
2018-10-16T08:32:35.966Z,19.47
2018-10-16T08:40:56.361Z,18.63
2018-10-16T08:43:38.833Z,35.70
2018-10-16T08:46:16.117Z,23.40
2018-10-16T08:59:06.273Z,25.00
2018-10-16T09:15:41.158Z,22.00
2018-10-16T09:18:09.622Z,25.10
2018-10-16T09:20:38.291Z,21.77
2018-10-16T09:23:10.614Z,26.53
2018-10-16T09:25:39.723Z,24.67
2018-10-16T09:28:14.190Z,23.27
2018-10-16T09:30:42.375Z,22.13
2018-10-16T09:33:11.179Z,23.93
2018-10-16T09:35:39.351Z,22.63
2018-10-16T09:38:07.523Z,21.53
2018-10-16T09:40:35.535Z,21.17
2018-10-16T09:43:03.564Z,21.57
2018-10-16T09:45:31.703Z,21.97
2018-10-16T09:47:59.835Z,26.17
2018-10-16T09:50:27.955Z,23.38
2018-10-16T09:52:56.128Z,20.80
2018-10-16T09:57:58.943Z,21.97
2018-10-16T10:00:32.477Z,22.05
2018-10-16T10:03:00.532Z,20.48
2018-10-16T10:05:28.644Z,23.38
2018-10-16T10:07:56.683Z,23.05
2018-10-16T10:10:24.796Z,19.30
2018-10-16T10:12:52.911Z,21.10
2018-10-16T10:15:20.973Z,19.00
2018-10-16T10:17:49.040Z,20.02
2018-10-16T10:20:17.077Z,19.30
2018-10-16T10:22:45.175Z,22.48
2018-10-16T10:25:13.307Z,18.52
2018-10-16T10:27:41.552Z,19.30
2018-10-16T10:30:10.560Z,18.35
2018-10-16T10:32:38.636Z,19.65
2018-10-16T10:35:07.434Z,19.12
2018-10-16T10:37:35.500Z,20.10
2018-10-16T10:40:03.567Z,19.35
2018-10-16T10:42:31.635Z,20.15
2018-10-16T10:44:59.676Z,20.65
2018-10-16T10:47:27.744Z,18.37
2018-10-16T10:49:55.927Z,18.98
2018-10-16T10:52:23.912Z,19.77
2018-10-16T10:54:52.188Z,23.42
2018-10-16T10:57:20.251Z,19.60
2018-10-16T10:59:48.332Z,13.53
2018-10-16T11:02:16.380Z,14.63
2018-10-16T11:04:44.403Z,15.15
2018-10-16T11:07:12.463Z,13.98
2018-10-16T11:09:40.529Z,13.72
2018-10-16T11:12:08.565Z,14.05
2018-10-16T11:14:36.588Z,10.32
2018-10-16T11:17:04.784Z,12.43
2018-10-16T11:19:32.940Z,13.32
2018-10-16T11:22:00.976Z,12.82
2018-10-16T11:24:29.021Z,13.65
2018-10-16T11:26:57.173Z,12.73
2018-10-16T11:29:25.264Z,13.15
2018-10-16T11:31:53.316Z,13.30
2018-10-16T11:34:21.485Z,10.75
2018-10-16T11:36:49.572Z,13.28
2018-10-16T11:39:24.098Z,12.47
2018-10-16T11:41:52.192Z,10.63
2018-10-16T11:44:20.257Z,9.90
2018-10-16T11:46:48.308Z,11.15
2018-10-16T11:49:16.377Z,10.80
2018-10-16T11:51:44.532Z,13.35
2018-10-16T11:54:12.644Z,14.60
2018-10-16T11:56:40.714Z,12.15
2018-10-16T11:59:08.827Z,11.35
2018-10-16T12:01:36.873Z,10.80
2018-10-16T12:04:04.953Z,12.45
2018-10-16T12:06:33.025Z,8.88
2018-10-16T12:09:01.217Z,10.53
2018-10-16T12:11:29.329Z,10.13
2018-10-16T12:13:57.569Z,8.65
2018-10-16T12:16:29.905Z,8.33
2018-10-16T12:19:05.526Z,7.60
2018-10-16T12:21:33.418Z,6.95
2018-10-16T12:24:01.516Z,7.65
2018-10-16T12:26:29.721Z,7.10
2018-10-16T12:28:57.842Z,8.53
2018-10-16T12:31:25.917Z,8.25
2018-10-16T12:33:53.966Z,8.48
2018-10-16T12:36:22.098Z,9.60
2018-10-16T12:38:50.357Z,8.70
2018-10-16T12:41:18.493Z,9.58
2018-10-16T12:43:46.576Z,8.95
2018-10-16T12:46:14.591Z,8.95
2018-10-16T12:48:42.634Z,7.90
2018-10-16T12:51:10.820Z,11.03
2018-10-16T12:53:38.780Z,8.80
2018-10-16T12:56:06.937Z,10.03
2018-10-16T12:58:47.273Z,9.28
2018-10-16T13:01:15.387Z,11.05
2018-10-16T13:03:43.485Z,14.75
2018-10-16T13:06:11.530Z,8.63
2018-10-16T13:08:39.518Z,10.65
2018-10-16T13:11:08.132Z,11.53
2018-10-16T13:13:36.066Z,10.55
2018-10-16T13:16:04.176Z,9.00
2018-10-16T13:18:32.207Z,11.00
2018-10-16T13:21:00.263Z,8.85
2018-10-16T13:23:28.358Z,10.60
2018-10-16T13:25:56.426Z,10.93
2018-10-16T13:28:24.476Z,10.38
2018-10-16T13:30:52.595Z,10.88
2018-10-16T13:33:20.674Z,9.30
2018-10-16T13:35:48.786Z,10.98
2018-10-16T13:38:16.847Z,10.10
2018-10-16T13:40:44.866Z,10.98
2018-10-16T13:43:12.919Z,8.68
2018-10-16T13:45:41.006Z,8.60
2018-10-16T13:48:09.064Z,10.63
2018-10-16T13:50:37.119Z,10.63
2018-10-16T13:53:05.235Z,10.48
2018-10-16T13:55:33.282Z,9.20
2018-10-16T13:58:01.386Z,9.20
2018-10-16T14:00:29.423Z,8.80
2018-10-16T14:02:57.475Z,8.95
2018-10-16T14:05:25.554Z,8.75
2018-10-16T14:07:53.648Z,12.30
2018-10-16T14:10:21.677Z,9.05
2018-10-16T14:12:49.783Z,10.90
2018-10-16T14:15:18.107Z,10.18
2018-10-16T14:17:46.192Z,7.83
2018-10-16T14:20:14.333Z,10.05
2018-10-16T14:22:43.048Z,7.75
2018-10-16T14:25:12.455Z,7.72
2018-10-16T14:27:40.978Z,9.70
2018-10-16T14:30:16.232Z,9.88
2018-10-16T14:32:44.328Z,8.95
2018-10-16T14:35:12.912Z,8.63
2018-10-16T14:37:41.060Z,7.60
2018-10-16T14:40:10.492Z,9.20
2018-10-16T14:42:38.484Z,10.45
2018-10-16T14:45:07.044Z,7.35
2018-10-16T14:47:35.101Z,7.08
2018-10-16T14:50:03.175Z,7.40
2018-10-16T14:52:31.196Z,8.03
2018-10-16T14:54:59.348Z,7.08
2018-10-16T14:57:27.412Z,7.12
2018-10-16T14:59:55.460Z,7.90
2018-10-16T15:02:23.532Z,9.23
2018-10-16T15:04:58.000Z,8.48
2018-10-16T15:07:26.069Z,9.45
2018-10-16T15:09:54.189Z,9.55
2018-10-16T15:12:27.472Z,7.62
2018-10-16T15:14:55.508Z,7.10
2018-10-16T15:17:23.572Z,10.75
2018-10-16T15:19:51.686Z,11.38
2018-10-16T15:22:19.741Z,7.53
2018-10-16T15:24:48.372Z,7.67
2018-10-16T15:27:16.981Z,7.90
2018-10-16T15:29:45.073Z,8.70
2018-10-16T15:32:13.255Z,9.40
2018-10-16T15:34:41.293Z,7.70
2018-10-16T15:37:09.402Z,7.10
2018-10-16T15:39:37.497Z,9.25
2018-10-16T15:42:05.597Z,11.22
2018-10-16T15:44:33.713Z,9.13
2018-10-16T15:47:01.773Z,6.90
2018-10-16T15:49:29.858Z,9.80
2018-10-16T15:51:57.970Z,9.43
2018-10-16T15:54:26.022Z,10.05
2018-10-16T15:56:54.121Z,9.18
2018-10-16T15:59:22.213Z,17.45
2018-10-16T16:01:50.307Z,12.25
2018-10-16T16:04:18.455Z,22.40
2018-10-16T16:06:46.546Z,10.53
2018-10-16T16:09:14.642Z,9.93
2018-10-16T16:11:42.722Z,9.58
2018-10-16T16:14:10.825Z,11.33
2018-10-16T16:16:38.871Z,11.73
2018-10-16T16:19:06.972Z,13.08
2018-10-16T16:21:35.052Z,16.12
2018-10-16T16:24:03.221Z,13.15
2018-10-16T16:26:31.253Z,9.55
2018-10-16T16:28:59.309Z,12.25
2018-10-16T16:31:27.522Z,11.28
2018-10-16T16:33:55.661Z,9.78
2018-10-16T16:36:23.672Z,9.20
2018-10-16T16:38:51.764Z,10.97
2018-10-16T16:41:19.820Z,9.53
2018-10-16T16:43:48.032Z,11.57
2018-10-16T16:46:16.013Z,12.90
2018-10-16T16:48:44.076Z,9.67
2018-10-16T16:51:12.165Z,10.33
2018-10-16T16:53:40.260Z,10.43
2018-10-16T16:56:08.381Z,12.63
2018-10-16T16:58:36.512Z,11.70
2018-10-16T17:01:04.637Z,12.23
2018-10-16T17:03:32.745Z,14.30
2018-10-16T17:06:00.861Z,13.37
2018-10-16T17:08:28.953Z,12.97
2018-10-16T17:10:57.020Z,12.00
2018-10-16T17:13:25.132Z,13.87
2018-10-16T17:15:53.229Z,12.47
2018-10-16T17:18:21.450Z,14.50
2018-10-16T17:20:49.548Z,14.90
2018-10-16T17:23:17.605Z,16.70
2018-10-16T17:25:45.991Z,12.80
2018-10-16T17:28:13.846Z,12.67
2018-10-16T17:30:41.887Z,14.00
2018-10-16T17:33:09.999Z,11.60
2018-10-16T17:35:38.037Z,15.90
2018-10-16T17:38:06.125Z,16.90
2018-10-16T17:40:34.255Z,16.80
2018-10-16T17:43:02.454Z,14.63
2018-10-16T17:45:30.533Z,17.07
2018-10-16T17:47:58.701Z,18.97
2018-10-16T17:50:26.621Z,15.83
2018-10-16T17:52:54.813Z,20.20
2018-10-16T17:55:22.897Z,21.53
2018-10-16T17:57:50.988Z,18.10
2018-10-16T18:00:19.865Z,16.20
2018-10-16T18:02:47.915Z,15.10
2018-10-16T18:05:16.424Z,15.10
2018-10-16T18:07:45.317Z,11.27
2018-10-16T18:10:14.045Z,13.83
2018-10-16T18:12:42.221Z,15.27
2018-10-16T18:15:11.611Z,14.47
2018-10-16T18:17:40.982Z,15.37
2018-10-16T18:20:09.993Z,12.87
2018-10-16T18:22:38.086Z,12.33
2018-10-16T18:25:06.365Z,12.40
2018-10-16T18:27:34.454Z,14.17
2018-10-16T18:30:02.760Z,16.40
2018-10-16T18:32:30.869Z,15.13
2018-10-16T18:34:58.933Z,14.47
2018-10-16T18:37:27.006Z,17.00
2018-10-16T18:39:55.146Z,13.63
2018-10-16T18:42:23.218Z,18.03
2018-10-16T18:44:51.253Z,13.30
2018-10-16T18:47:19.319Z,16.23
2018-10-16T18:49:47.362Z,14.73
2018-10-16T18:52:15.462Z,12.63
2018-10-16T18:54:43.578Z,16.00
2018-10-16T18:57:11.662Z,12.37
2018-10-16T18:59:39.786Z,16.67
2018-10-16T19:02:07.911Z,13.80
2018-10-16T19:04:36.035Z,14.67
2018-10-16T19:07:04.323Z,15.53
2018-10-16T19:09:32.486Z,15.13
2018-10-16T19:12:00.599Z,13.67
2018-10-16T19:14:28.747Z,13.87
2018-10-16T19:16:56.907Z,13.87
2018-10-16T19:19:24.987Z,13.53
2018-10-16T19:21:53.091Z,15.17
2018-10-16T19:24:21.191Z,13.03
2018-10-16T19:26:49.280Z,19.27
2018-10-16T19:29:17.419Z,15.63
2018-10-16T19:31:45.572Z,13.13
2018-10-16T19:34:13.682Z,18.13
2018-10-16T19:36:41.808Z,13.30
2018-10-16T19:39:11.176Z,14.43
2018-10-16T19:41:40.310Z,15.30
2018-10-16T19:44:08.495Z,18.50
2018-10-16T19:46:43.056Z,14.37
2018-10-16T19:49:11.139Z,17.00
2018-10-16T19:51:39.228Z,14.03
2018-10-16T19:54:07.336Z,14.30
2018-10-16T19:56:35.451Z,17.50
2018-10-16T19:59:03.535Z,14.33
2018-10-16T20:01:31.615Z,13.77
2018-10-16T20:03:59.728Z,14.90
2018-10-16T20:06:27.812Z,14.17
2018-10-16T20:08:56.008Z,17.60
2018-10-16T20:11:24.080Z,16.13
2018-10-16T20:13:52.186Z,16.27
2018-10-16T20:16:20.332Z,18.37
2018-10-16T20:18:48.452Z,18.27
2018-10-16T20:21:16.544Z,16.70
2018-10-16T20:23:44.660Z,17.13
2018-10-16T20:26:12.768Z,18.60
2018-10-16T20:28:40.847Z,17.10
2018-10-16T20:31:09.010Z,18.03
2018-10-16T20:33:37.060Z,17.47
2018-10-16T20:36:05.192Z,16.97
2018-10-16T20:38:33.311Z,17.40
2018-10-16T20:41:01.425Z,17.37
2018-10-16T20:43:29.524Z,18.17
2018-10-16T20:45:57.631Z,17.70
2018-10-16T20:48:25.732Z,16.73
2018-10-16T20:50:53.877Z,18.27
2018-10-16T20:53:21.976Z,17.80
2018-10-16T20:55:50.105Z,20.93
2018-10-16T20:58:18.197Z,19.23
2018-10-16T21:00:46.274Z,18.77
2018-10-16T21:03:14.359Z,20.33
2018-10-16T21:05:42.556Z,19.67
2018-10-16T21:08:10.608Z,30.50
2018-10-16T21:10:38.710Z,22.83
2018-10-16T21:13:06.882Z,18.07
2018-10-16T21:15:34.981Z,18.27
2018-10-16T21:18:03.068Z,19.93
2018-10-16T21:20:31.151Z,17.63
2018-10-16T21:22:59.290Z,18.13
2018-10-16T21:25:27.381Z,17.97
2018-10-16T21:27:55.493Z,17.87
2018-10-16T21:30:23.517Z,19.97
2018-10-16T21:32:51.524Z,17.73
2018-10-16T21:35:19.556Z,17.33
2018-10-16T21:37:47.595Z,17.87
2018-10-16T21:40:15.661Z,17.93
2018-10-16T21:42:43.708Z,21.97
2018-10-16T21:45:11.765Z,18.70
2018-10-16T21:47:39.837Z,20.70
2018-10-16T21:50:07.901Z,19.67
2018-10-16T21:52:35.973Z,18.37
2018-10-16T21:55:04.171Z,18.50
2018-10-16T21:57:32.140Z,19.10
2018-10-16T22:00:00.205Z,18.57
2018-10-16T22:02:33.768Z,19.47
2018-10-16T22:05:01.976Z,19.60
2018-10-16T22:07:29.872Z,20.53
2018-10-16T22:09:57.887Z,21.10
2018-10-16T22:12:32.436Z,20.87
2018-10-16T22:15:00.507Z,20.13
2018-10-16T22:17:28.500Z,19.03
2018-10-16T22:19:56.527Z,19.57
2018-10-16T22:22:24.558Z,25.93
2018-10-16T22:24:52.605Z,20.40
2018-10-16T22:27:20.640Z,21.00
2018-10-16T22:29:48.695Z,21.73
2018-10-16T22:32:16.732Z,20.90
2018-10-16T22:34:44.759Z,22.17
2018-10-16T22:37:12.844Z,21.00
2018-10-16T22:39:40.796Z,20.17
2018-10-16T22:42:08.824Z,20.47
2018-10-16T22:44:36.909Z,23.97
2018-10-16T22:47:04.982Z,23.23
2018-10-16T22:49:33.004Z,20.77
2018-10-16T22:52:01.047Z,25.37
2018-10-16T22:54:29.117Z,21.10
2018-10-16T22:56:57.153Z,21.03
2018-10-16T22:59:25.168Z,21.50
2018-10-16T23:01:53.257Z,20.87
2018-10-16T23:04:21.337Z,20.93
2018-10-16T23:06:49.360Z,21.03
2018-10-16T23:09:17.397Z,22.23
2018-10-16T23:11:45.452Z,22.97
2018-10-16T23:14:13.505Z,20.90
2018-10-16T23:16:41.521Z,21.33
2018-10-16T23:19:09.610Z,22.60
2018-10-16T23:21:37.569Z,22.17
2018-10-16T23:24:05.626Z,23.10
2018-10-16T23:26:33.645Z,22.27
2018-10-16T23:29:01.771Z,23.80
2018-10-16T23:31:29.773Z,23.23
2018-10-16T23:33:57.797Z,24.93
2018-10-16T23:36:25.836Z,21.43
2018-10-16T23:38:53.882Z,22.53
2018-10-16T23:41:21.917Z,22.60
2018-10-16T23:43:49.977Z,22.70
2018-10-16T23:46:18.025Z,23.53
2018-10-16T23:48:46.081Z,23.40
2018-10-16T23:51:14.161Z,22.57
2018-10-16T23:53:42.475Z,21.93
2018-10-16T23:56:10.502Z,22.83
2018-10-16T23:58:38.538Z,23.77
